sensor_id;sensor_type;location;lat;lon;timestamp;temperature;humidity
39779;DHT22;25454;49.878;8.618;2023-04-23T00:04:36;14.00;99.90
39779;DHT22;25454;49.878;8.618;2023-04-23T00:09:37;14.00;99.90
39779;DHT22;25454;49.878;8.618;2023-04-23T00:14:38;14.00;99.90
39779;DHT22;25454;49.878;8.618;2023-04-23T00:19:38;13.90;99.90
39779;DHT22;25454;49.878;8.618;2023-04-23T00:24:39;14.00;99.90
39779;DHT22;25454;49.878;8.618;2023-04-23T00:29:40;14.00;99.90
39779;DHT22;25454;49.878;8.618;2023-04-23T00:34:40;13.90;99.90
39779;DHT22;25454;49.878;8.618;2023-04-23T00:39:41;13.90;99.90
39779;DHT22;25454;49.878;8.618;2023-04-23T00:44:42;13.90;99.90
39779;DHT22;25454;49.878;8.618;2023-04-23T00:49:43;13.90;99.90
39779;DHT22;25454;49.878;8.618;2023-04-23T00:54:44;13.80;99.90
39779;DHT22;25454;49.878;8.618;2023-04-23T00:59:45;13.80;99.90
39779;DHT22;25454;49.878;8.618;2023-04-23T01:04:47;13.70;99.90
39779;DHT22;25454;49.878;8.618;2023-04-23T01:09:50;13.60;99.90
39779;DHT22;25454;49.878;8.618;2023-04-23T01:14:51;13.60;99.90
39779;DHT22;25454;49.878;8.618;2023-04-23T01:19:55;13.60;99.90
39779;DHT22;25454;49.878;8.618;2023-04-23T01:24:56;13.60;99.90
39779;DHT22;25454;49.878;8.618;2023-04-23T01:29:57;13.50;99.90
39779;DHT22;25454;49.878;8.618;2023-04-23T01:34:57;13.50;99.90
39779;DHT22;25454;49.878;8.618;2023-04-23T01:39:59;13.50;99.90
39779;DHT22;25454;49.878;8.618;2023-04-23T01:45:01;13.50;99.90
39779;DHT22;25454;49.878;8.618;2023-04-23T01:50:02;13.50;99.90
39779;DHT22;25454;49.878;8.618;2023-04-23T01:55:04;13.40;99.90
39779;DHT22;25454;49.878;8.618;2023-04-23T02:00:10;13.40;99.90
39779;DHT22;25454;49.878;8.618;2023-04-23T02:05:14;13.40;99.90
39779;DHT22;25454;49.878;8.618;2023-04-23T02:10:16;13.40;99.90
39779;DHT22;25454;49.878;8.618;2023-04-23T02:15:18;13.40;99.90
39779;DHT22;25454;49.878;8.618;2023-04-23T02:20:19;13.30;99.90
39779;DHT22;25454;49.878;8.618;2023-04-23T02:25:21;13.30;99.90
39779;DHT22;25454;49.878;8.618;2023-04-23T02:30:21;13.30;99.90
39779;DHT22;25454;49.878;8.618;2023-04-23T02:35:22;13.30;99.90
39779;DHT22;25454;49.878;8.618;2023-04-23T02:40:23;13.30;99.90
39779;DHT22;25454;49.878;8.618;2023-04-23T02:45:24;13.30;99.90
39779;DHT22;25454;49.878;8.618;2023-04-23T02:50:24;13.30;99.90
39779;DHT22;25454;49.878;8.618;2023-04-23T02:55:25;13.30;99.90
39779;DHT22;25454;49.878;8.618;2023-04-23T03:00:29;13.30;99.90
39779;DHT22;25454;49.878;8.618;2023-04-23T03:05:29;13.20;99.90
39779;DHT22;25454;49.878;8.618;2023-04-23T03:10:30;13.20;99.90
39779;DHT22;25454;49.878;8.618;2023-04-23T03:15:31;13.20;99.90
39779;DHT22;25454;49.878;8.618;2023-04-23T03:20:31;13.20;99.90
39779;DHT22;25454;49.878;8.618;2023-04-23T03:25:32;13.20;99.90
39779;DHT22;25454;49.878;8.618;2023-04-23T03:30:33;13.20;99.90
39779;DHT22;25454;49.878;8.618;2023-04-23T03:35:34;13.20;99.90
39779;DHT22;25454;49.878;8.618;2023-04-23T03:40:35;13.20;99.90
39779;DHT22;25454;49.878;8.618;2023-04-23T03:45:36;13.20;99.90
39779;DHT22;25454;49.878;8.618;2023-04-23T03:50:36;13.20;99.90
39779;DHT22;25454;49.878;8.618;2023-04-23T03:55:39;13.10;99.90
39779;DHT22;25454;49.878;8.618;2023-04-23T04:00:40;13.10;99.90
39779;DHT22;25454;49.878;8.618;2023-04-23T04:05:40;13.10;99.90
39779;DHT22;25454;49.878;8.618;2023-04-23T04:10:41;13.10;99.90
39779;DHT22;25454;49.878;8.618;2023-04-23T04:15:42;13.00;99.90
39779;DHT22;25454;49.878;8.618;2023-04-23T04:20:42;13.00;99.90
39779;DHT22;25454;49.878;8.618;2023-04-23T04:25:44;13.00;99.90
39779;DHT22;25454;49.878;8.618;2023-04-23T04:30:45;13.00;99.90
39779;DHT22;25454;49.878;8.618;2023-04-23T04:35:46;13.00;99.90
39779;DHT22;25454;49.878;8.618;2023-04-23T04:40:48;13.00;99.90
39779;DHT22;25454;49.878;8.618;2023-04-23T04:45:49;13.00;99.90
39779;DHT22;25454;49.878;8.618;2023-04-23T04:50:50;12.90;99.90
39779;DHT22;25454;49.878;8.618;2023-04-23T04:55:51;13.00;99.90
39779;DHT22;25454;49.878;8.618;2023-04-23T05:00:52;13.00;99.90
39779;DHT22;25454;49.878;8.618;2023-04-23T05:05:53;13.00;99.90
39779;DHT22;25454;49.878;8.618;2023-04-23T05:10:57;13.00;99.90
39779;DHT22;25454;49.878;8.618;2023-04-23T05:16:00;13.10;99.90
39779;DHT22;25454;49.878;8.618;2023-04-23T05:21:00;13.20;99.90
39779;DHT22;25454;49.878;8.618;2023-04-23T05:26:01;13.50;99.90
39779;DHT22;25454;49.878;8.618;2023-04-23T05:31:05;13.70;99.90
39779;DHT22;25454;49.878;8.618;2023-04-23T05:36:06;14.00;99.90
39779;DHT22;25454;49.878;8.618;2023-04-23T05:41:07;14.00;99.90
39779;DHT22;25454;49.878;8.618;2023-04-23T05:46:08;14.20;99.90
39779;DHT22;25454;49.878;8.618;2023-04-23T05:51:08;14.40;99.90
39779;DHT22;25454;49.878;8.618;2023-04-23T05:56:09;14.80;99.90
39779;DHT22;25454;49.878;8.618;2023-04-23T06:01:10;15.20;99.90
39779;DHT22;25454;49.878;8.618;2023-04-23T06:06:11;15.40;99.90
39779;DHT22;25454;49.878;8.618;2023-04-23T06:11:14;16.10;99.90
39779;DHT22;25454;49.878;8.618;2023-04-23T06:16:15;18.90;99.90
39779;DHT22;25454;49.878;8.618;2023-04-23T06:21:16;22.10;99.90
39779;DHT22;25454;49.878;8.618;2023-04-23T06:26:16;24.70;99.90
39779;DHT22;25454;49.878;8.618;2023-04-23T06:31:17;26.40;96.70
39779;DHT22;25454;49.878;8.618;2023-04-23T06:36:18;27.50;91.40
39779;DHT22;25454;49.878;8.618;2023-04-23T06:41:19;28.50;79.90
39779;DHT22;25454;49.878;8.618;2023-04-23T06:46:20;28.70;73.80
39779;DHT22;25454;49.878;8.618;2023-04-23T06:51:21;28.70;71.60
39779;DHT22;25454;49.878;8.618;2023-04-23T06:56:21;26.20;76.30
39779;DHT22;25454;49.878;8.618;2023-04-23T07:01:22;23.30;86.80
39779;DHT22;25454;49.878;8.618;2023-04-23T07:06:22;21.30;93.40
39779;DHT22;25454;49.878;8.618;2023-04-23T07:11:23;20.20;97.50
39779;DHT22;25454;49.878;8.618;2023-04-23T07:16:23;19.90;99.60
39779;DHT22;25454;49.878;8.618;2023-04-23T07:21:25;19.70;99.90
39779;DHT22;25454;49.878;8.618;2023-04-23T07:26:29;19.40;99.90
39779;DHT22;25454;49.878;8.618;2023-04-23T07:31:30;19.80;99.90
39779;DHT22;25454;49.878;8.618;2023-04-23T07:36:30;20.60;99.90
39779;DHT22;25454;49.878;8.618;2023-04-23T07:41:31;23.60;94.60
39779;DHT22;25454;49.878;8.618;2023-04-23T07:46:35;25.40;91.10
39779;DHT22;25454;49.878;8.618;2023-04-23T07:51:35;28.30;80.20
39779;DHT22;25454;49.878;8.618;2023-04-23T07:56:39;29.90;67.50
39779;DHT22;25454;49.878;8.618;2023-04-23T08:01:40;31.10;59.30
39779;DHT22;25454;49.878;8.618;2023-04-23T08:06:41;30.20;58.50
39779;DHT22;25454;49.878;8.618;2023-04-23T08:11:42;30.50;57.50
39779;DHT22;25454;49.878;8.618;2023-04-23T08:16:43;31.50;56.00
39779;DHT22;25454;49.878;8.618;2023-04-23T08:21:43;31.50;53.40
39779;DHT22;25454;49.878;8.618;2023-04-23T08:26:44;28.90;56.50
39779;DHT22;25454;49.878;8.618;2023-04-23T08:31:46;29.40;57.10
39779;DHT22;25454;49.878;8.618;2023-04-23T08:36:46;30.80;53.30
39779;DHT22;25454;49.878;8.618;2023-04-23T08:41:53;31.90;51.10
39779;DHT22;25454;49.878;8.618;2023-04-23T08:46:55;32.00;49.30
39779;DHT22;25454;49.878;8.618;2023-04-23T08:52:03;31.40;51.50
39779;DHT22;25454;49.878;8.618;2023-04-23T08:57:08;31.50;49.40
39779;DHT22;25454;49.878;8.618;2023-04-23T09:02:09;29.30;53.90
39779;DHT22;25454;49.878;8.618;2023-04-23T09:07:10;30.50;51.20
39779;DHT22;25454;49.878;8.618;2023-04-23T09:12:11;32.80;48.50
39779;DHT22;25454;49.878;8.618;2023-04-23T09:17:12;34.90;44.70
39779;DHT22;25454;49.878;8.618;2023-04-23T09:22:13;35.70;43.50
39779;DHT22;25454;49.878;8.618;2023-04-23T09:27:18;35.60;40.60
39779;DHT22;25454;49.878;8.618;2023-04-23T09:32:30;34.70;41.70
39779;DHT22;25454;49.878;8.618;2023-04-23T09:37:32;32.40;44.80
39779;DHT22;25454;49.878;8.618;2023-04-23T09:42:35;29.40;49.30
39779;DHT22;25454;49.878;8.618;2023-04-23T09:47:43;27.20;54.90
39779;DHT22;25454;49.878;8.618;2023-04-23T09:52:53;28.50;53.20
39779;DHT22;25454;49.878;8.618;2023-04-23T09:57:55;28.60;51.10
39779;DHT22;25454;49.878;8.618;2023-04-23T10:02:55;27.70;51.10
39779;DHT22;25454;49.878;8.618;2023-04-23T10:07:58;26.50;54.80
39779;DHT22;25454;49.878;8.618;2023-04-23T10:12:59;26.70;54.90
39779;DHT22;25454;49.878;8.618;2023-04-23T10:18:02;26.80;54.30
39779;DHT22;25454;49.878;8.618;2023-04-23T10:23:04;27.50;53.30
39779;DHT22;25454;49.878;8.618;2023-04-23T10:28:05;27.70;51.20
39779;DHT22;25454;49.878;8.618;2023-04-23T10:33:07;28.90;49.00
39779;DHT22;25454;49.878;8.618;2023-04-23T10:38:08;28.20;50.40
39779;DHT22;25454;49.878;8.618;2023-04-23T10:43:09;27.70;51.10
39779;DHT22;25454;49.878;8.618;2023-04-23T10:48:10;29.10;49.10
39779;DHT22;25454;49.878;8.618;2023-04-23T10:53:19;29.00;48.90
39779;DHT22;25454;49.878;8.618;2023-04-23T10:58:20;26.60;52.30
39779;DHT22;25454;49.878;8.618;2023-04-23T11:03:40;24.40;55.80
39779;DHT22;25454;49.878;8.618;2023-04-23T11:08:51;24.10;59.20
39779;DHT22;25454;49.878;8.618;2023-04-23T11:13:55;25.10;56.90
39779;DHT22;25454;49.878;8.618;2023-04-23T11:19:00;25.60;55.80
39779;DHT22;25454;49.878;8.618;2023-04-23T11:24:06;25.30;55.20
39779;DHT22;25454;49.878;8.618;2023-04-23T11:29:07;24.20;57.90
39779;DHT22;25454;49.878;8.618;2023-04-23T11:34:08;24.20;58.70
39779;DHT22;25454;49.878;8.618;2023-04-23T11:39:11;24.80;58.50
39779;DHT22;25454;49.878;8.618;2023-04-23T11:44:12;24.70;56.30
39779;DHT22;25454;49.878;8.618;2023-04-23T11:49:13;24.00;58.10
39779;DHT22;25454;49.878;8.618;2023-04-23T11:54:14;24.00;58.50
39779;DHT22;25454;49.878;8.618;2023-04-23T11:59:14;24.30;58.00
39779;DHT22;25454;49.878;8.618;2023-04-23T12:04:18;24.50;58.10
39779;DHT22;25454;49.878;8.618;2023-04-23T12:09:21;24.20;58.60
39779;DHT22;25454;49.878;8.618;2023-04-23T12:14:26;23.90;56.80
39779;DHT22;25454;49.878;8.618;2023-04-23T12:19:29;22.60;59.40
39779;DHT22;25454;49.878;8.618;2023-04-23T12:24:44;22.70;60.10
39779;DHT22;25454;49.878;8.618;2023-04-23T12:29:45;23.10;58.70
39779;DHT22;25454;49.878;8.618;2023-04-23T12:34:51;23.10;57.40
39779;DHT22;25454;49.878;8.618;2023-04-23T12:39:52;23.00;58.70
39779;DHT22;25454;49.878;8.618;2023-04-23T12:45:04;22.80;59.00
39779;DHT22;25454;49.878;8.618;2023-04-23T12:50:06;22.70;57.40
39779;DHT22;25454;49.878;8.618;2023-04-23T12:55:07;22.60;57.50
39779;DHT22;25454;49.878;8.618;2023-04-23T13:00:08;22.40;56.00
39779;DHT22;25454;49.878;8.618;2023-04-23T13:05:10;22.10;58.10
39779;DHT22;25454;49.878;8.618;2023-04-23T13:10:11;22.00;59.60
39779;DHT22;25454;49.878;8.618;2023-04-23T13:15:11;22.00;59.10
39779;DHT22;25454;49.878;8.618;2023-04-23T13:20:12;21.90;59.50
39779;DHT22;25454;49.878;8.618;2023-04-23T13:25:13;21.90;57.40
39779;DHT22;25454;49.878;8.618;2023-04-23T13:30:13;21.80;57.20
39779;DHT22;25454;49.878;8.618;2023-04-23T13:35:14;21.70;57.10
39779;DHT22;25454;49.878;8.618;2023-04-23T13:40:16;21.50;60.10
39779;DHT22;25454;49.878;8.618;2023-04-23T13:45:17;21.50;59.20
39779;DHT22;25454;49.878;8.618;2023-04-23T13:50:17;21.50;58.40
39779;DHT22;25454;49.878;8.618;2023-04-23T13:55:18;21.70;58.30
39779;DHT22;25454;49.878;8.618;2023-04-23T14:00:18;22.00;56.90
39779;DHT22;25454;49.878;8.618;2023-04-23T14:05:19;22.10;56.40
39779;DHT22;25454;49.878;8.618;2023-04-23T14:10:20;22.20;56.10
39779;DHT22;25454;49.878;8.618;2023-04-23T14:15:21;22.50;55.00
39779;DHT22;25454;49.878;8.618;2023-04-23T14:20:21;22.80;55.10
39779;DHT22;25454;49.878;8.618;2023-04-23T14:25:33;22.90;54.50
39779;DHT22;25454;49.878;8.618;2023-04-23T14:30:34;22.70;54.60
39779;DHT22;25454;49.878;8.618;2023-04-23T14:35:34;22.70;54.50
39779;DHT22;25454;49.878;8.618;2023-04-23T14:40:35;22.50;54.30
39779;DHT22;25454;49.878;8.618;2023-04-23T14:45:36;22.40;55.00
39779;DHT22;25454;49.878;8.618;2023-04-23T14:50:36;22.40;54.60
39779;DHT22;25454;49.878;8.618;2023-04-23T14:55:37;22.50;54.10
39779;DHT22;25454;49.878;8.618;2023-04-23T15:00:39;22.40;54.30
39779;DHT22;25454;49.878;8.618;2023-04-23T15:05:40;22.50;54.60
39779;DHT22;25454;49.878;8.618;2023-04-23T15:10:42;22.40;54.80
39779;DHT22;25454;49.878;8.618;2023-04-23T15:15:48;22.30;54.80
39779;DHT22;25454;49.878;8.618;2023-04-23T15:20:49;22.10;55.70
39779;DHT22;25454;49.878;8.618;2023-04-23T15:25:51;21.80;55.60
39779;DHT22;25454;49.878;8.618;2023-04-23T15:30:53;21.50;55.90
39779;DHT22;25454;49.878;8.618;2023-04-23T15:35:53;21.40;57.40
39779;DHT22;25454;49.878;8.618;2023-04-23T15:40:55;21.40;56.90
39779;DHT22;25454;49.878;8.618;2023-04-23T15:45:56;21.50;57.40
39779;DHT22;25454;49.878;8.618;2023-04-23T15:50:57;21.60;58.10
39779;DHT22;25454;49.878;8.618;2023-04-23T15:55:58;21.50;58.00
39779;DHT22;25454;49.878;8.618;2023-04-23T16:00:59;21.20;58.70
39779;DHT22;25454;49.878;8.618;2023-04-23T16:06:01;20.80;59.00
39779;DHT22;25454;49.878;8.618;2023-04-23T16:11:02;20.60;60.90
39779;DHT22;25454;49.878;8.618;2023-04-23T16:16:03;20.30;62.50
39779;DHT22;25454;49.878;8.618;2023-04-23T16:21:03;19.90;71.60
39779;DHT22;25454;49.878;8.618;2023-04-23T16:26:05;19.10;83.80
39779;DHT22;25454;49.878;8.618;2023-04-23T16:31:08;18.10;94.80
39779;DHT22;25454;49.878;8.618;2023-04-23T16:36:08;17.30;97.00
39779;DHT22;25454;49.878;8.618;2023-04-23T16:41:12;17.00;99.90
39779;DHT22;25454;49.878;8.618;2023-04-23T16:46:14;16.90;99.90
39779;DHT22;25454;49.878;8.618;2023-04-23T16:51:15;16.70;99.90
39779;DHT22;25454;49.878;8.618;2023-04-23T16:56:16;16.80;99.90
39779;DHT22;25454;49.878;8.618;2023-04-23T17:01:16;16.90;99.90
39779;DHT22;25454;49.878;8.618;2023-04-23T17:06:24;16.80;99.90
39779;DHT22;25454;49.878;8.618;2023-04-23T17:11:26;17.00;99.90
39779;DHT22;25454;49.878;8.618;2023-04-23T17:16:27;17.00;99.90
39779;DHT22;25454;49.878;8.618;2023-04-23T17:21:28;16.90;99.90
39779;DHT22;25454;49.878;8.618;2023-04-23T17:26:32;16.80;99.90
39779;DHT22;25454;49.878;8.618;2023-04-23T17:31:32;16.70;99.90
39779;DHT22;25454;49.878;8.618;2023-04-23T17:36:33;16.60;99.90
39779;DHT22;25454;49.878;8.618;2023-04-23T17:41:34;16.50;99.90
39779;DHT22;25454;49.878;8.618;2023-04-23T17:46:35;16.40;99.90
39779;DHT22;25454;49.878;8.618;2023-04-23T17:51:35;16.20;99.90
39779;DHT22;25454;49.878;8.618;2023-04-23T17:56:36;16.10;99.90
39779;DHT22;25454;49.878;8.618;2023-04-23T18:01:36;16.00;99.90
39779;DHT22;25454;49.878;8.618;2023-04-23T18:06:37;16.00;99.90
39779;DHT22;25454;49.878;8.618;2023-04-23T18:11:38;15.90;99.90
39779;DHT22;25454;49.878;8.618;2023-04-23T18:16:39;15.80;99.90
39779;DHT22;25454;49.878;8.618;2023-04-23T18:21:39;15.60;99.90
39779;DHT22;25454;49.878;8.618;2023-04-23T18:26:40;15.50;99.90
39779;DHT22;25454;49.878;8.618;2023-04-23T18:31:40;15.30;99.90
39779;DHT22;25454;49.878;8.618;2023-04-23T18:36:42;15.10;99.90
39779;DHT22;25454;49.878;8.618;2023-04-23T18:41:44;15.00;99.90
39779;DHT22;25454;49.878;8.618;2023-04-23T18:46:45;14.90;99.90
39779;DHT22;25454;49.878;8.618;2023-04-23T18:51:49;14.80;99.90
39779;DHT22;25454;49.878;8.618;2023-04-23T18:56:51;14.80;99.90
39779;DHT22;25454;49.878;8.618;2023-04-23T19:01:54;14.70;99.90
39779;DHT22;25454;49.878;8.618;2023-04-23T19:06:55;14.60;99.90
39779;DHT22;25454;49.878;8.618;2023-04-23T19:11:56;14.50;99.90
39779;DHT22;25454;49.878;8.618;2023-04-23T19:16:57;14.50;99.90
39779;DHT22;25454;49.878;8.618;2023-04-23T19:21:58;14.50;99.90
39779;DHT22;25454;49.878;8.618;2023-04-23T19:27:00;14.50;99.90
39779;DHT22;25454;49.878;8.618;2023-04-23T19:32:01;14.40;99.90
39779;DHT22;25454;49.878;8.618;2023-04-23T19:37:02;14.30;99.90
39779;DHT22;25454;49.878;8.618;2023-04-23T19:42:02;14.20;99.90
39779;DHT22;25454;49.878;8.618;2023-04-23T19:47:03;14.10;99.90
39779;DHT22;25454;49.878;8.618;2023-04-23T19:52:15;14.10;99.90
39779;DHT22;25454;49.878;8.618;2023-04-23T19:57:17;14.00;99.90
39779;DHT22;25454;49.878;8.618;2023-04-23T20:02:18;14.00;99.90
39779;DHT22;25454;49.878;8.618;2023-04-23T20:07:22;13.90;99.90
39779;DHT22;25454;49.878;8.618;2023-04-23T20:12:23;14.00;99.90
39779;DHT22;25454;49.878;8.618;2023-04-23T20:17:26;13.90;99.90
39779;DHT22;25454;49.878;8.618;2023-04-23T20:22:29;13.80;99.90
39779;DHT22;25454;49.878;8.618;2023-04-23T20:27:30;13.80;99.90
39779;DHT22;25454;49.878;8.618;2023-04-23T20:32:31;13.80;99.90
39779;DHT22;25454;49.878;8.618;2023-04-23T20:37:31;13.80;99.90
39779;DHT22;25454;49.878;8.618;2023-04-23T20:42:32;13.80;99.90
39779;DHT22;25454;49.878;8.618;2023-04-23T20:47:33;13.80;99.90
39779;DHT22;25454;49.878;8.618;2023-04-23T20:52:34;13.90;99.90
39779;DHT22;25454;49.878;8.618;2023-04-23T20:57:35;13.80;99.90
39779;DHT22;25454;49.878;8.618;2023-04-23T21:02:37;13.80;99.90
39779;DHT22;25454;49.878;8.618;2023-04-23T21:07:38;13.80;99.90
39779;DHT22;25454;49.878;8.618;2023-04-23T21:12:38;13.80;99.90
39779;DHT22;25454;49.878;8.618;2023-04-23T21:17:42;13.70;99.90
39779;DHT22;25454;49.878;8.618;2023-04-23T21:22:42;13.70;99.90
39779;DHT22;25454;49.878;8.618;2023-04-23T21:27:43;13.70;99.90
39779;DHT22;25454;49.878;8.618;2023-04-23T21:32:43;13.60;99.90
39779;DHT22;25454;49.878;8.618;2023-04-23T21:37:44;13.60;99.90
39779;DHT22;25454;49.878;8.618;2023-04-23T21:42:45;13.60;99.90
39779;DHT22;25454;49.878;8.618;2023-04-23T21:47:46;13.60;99.90
39779;DHT22;25454;49.878;8.618;2023-04-23T21:52:47;13.70;99.90
39779;DHT22;25454;49.878;8.618;2023-04-23T21:57:52;13.70;99.90
39779;DHT22;25454;49.878;8.618;2023-04-23T22:02:56;13.70;99.90
39779;DHT22;25454;49.878;8.618;2023-04-23T22:07:56;13.60;99.90
39779;DHT22;25454;49.878;8.618;2023-04-23T22:12:58;13.70;99.90
39779;DHT22;25454;49.878;8.618;2023-04-23T22:17:58;13.70;99.90
39779;DHT22;25454;49.878;8.618;2023-04-23T22:23:00;13.70;99.90
39779;DHT22;25454;49.878;8.618;2023-04-23T22:28:03;13.70;99.90
39779;DHT22;25454;49.878;8.618;2023-04-23T22:33:04;13.70;99.90
39779;DHT22;25454;49.878;8.618;2023-04-23T22:38:05;13.70;99.90
39779;DHT22;25454;49.878;8.618;2023-04-23T22:43:05;13.60;99.90
39779;DHT22;25454;49.878;8.618;2023-04-23T22:48:06;13.30;99.90
39779;DHT22;25454;49.878;8.618;2023-04-23T22:53:09;13.20;99.90
39779;DHT22;25454;49.878;8.618;2023-04-23T22:58:10;13.00;99.90
39779;DHT22;25454;49.878;8.618;2023-04-23T23:03:11;12.90;99.90
39779;DHT22;25454;49.878;8.618;2023-04-23T23:08:12;12.80;99.90
39779;DHT22;25454;49.878;8.618;2023-04-23T23:13:12;12.70;99.90
39779;DHT22;25454;49.878;8.618;2023-04-23T23:18:13;12.70;99.90
39779;DHT22;25454;49.878;8.618;2023-04-23T23:23:13;12.60;99.90
39779;DHT22;25454;49.878;8.618;2023-04-23T23:28:14;12.50;99.90
39779;DHT22;25454;49.878;8.618;2023-04-23T23:33:15;12.40;99.90
39779;DHT22;25454;49.878;8.618;2023-04-23T23:38:16;12.40;99.90
39779;DHT22;25454;49.878;8.618;2023-04-23T23:43:16;12.40;99.90
39779;DHT22;25454;49.878;8.618;2023-04-23T23:48:17;12.40;99.90
39779;DHT22;25454;49.878;8.618;2023-04-23T23:53:17;12.50;99.90
39779;DHT22;25454;49.878;8.618;2023-04-23T23:58:18;12.50;99.90
